sensor_id;sensor_type;location;lat;lon;timestamp;P1;durP1;ratioP1;P2;durP2;ratioP2
66118;SDS011;52912;48.564;9.302;2022-09-12T00:01:22;8.75;;;5.07;;
66118;SDS011;52912;48.564;9.302;2022-09-12T00:03:50;7.45;;;5.22;;
66118;SDS011;52912;48.564;9.302;2022-09-12T00:06:17;10.23;;;5.25;;
66118;SDS011;52912;48.564;9.302;2022-09-12T00:08:43;7.93;;;5.10;;
66118;SDS011;52912;48.564;9.302;2022-09-12T00:11:11;7.95;;;5.55;;
66118;SDS011;52912;48.564;9.302;2022-09-12T00:13:37;8.45;;;5.32;;
66118;SDS011;52912;48.564;9.302;2022-09-12T00:16:04;8.65;;;5.90;;
66118;SDS011;52912;48.564;9.302;2022-09-12T00:18:31;7.70;;;5.20;;
66118;SDS011;52912;48.564;9.302;2022-09-12T00:21:00;8.48;;;5.18;;
66118;SDS011;52912;48.564;9.302;2022-09-12T00:23:27;8.68;;;5.10;;
66118;SDS011;52912;48.564;9.302;2022-09-12T00:25:52;9.32;;;5.43;;
66118;SDS011;52912;48.564;9.302;2022-09-12T00:28:19;11.02;;;5.20;;
66118;SDS011;52912;48.564;9.302;2022-09-12T00:30:45;11.80;;;5.10;;
66118;SDS011;52912;48.564;9.302;2022-09-12T00:33:14;8.77;;;5.43;;
66118;SDS011;52912;48.564;9.302;2022-09-12T00:35:41;8.45;;;5.68;;
66118;SDS011;52912;48.564;9.302;2022-09-12T00:38:07;7.90;;;5.20;;
66118;SDS011;52912;48.564;9.302;2022-09-12T00:40:33;7.97;;;5.75;;
66118;SDS011;52912;48.564;9.302;2022-09-12T00:42:58;6.57;;;5.28;;
66118;SDS011;52912;48.564;9.302;2022-09-12T00:45:26;7.07;;;4.78;;
66118;SDS011;52912;48.564;9.302;2022-09-12T00:47:53;10.48;;;5.28;;
66118;SDS011;52912;48.564;9.302;2022-09-12T00:50:20;7.03;;;4.90;;
66118;SDS011;52912;48.564;9.302;2022-09-12T00:52:47;6.80;;;4.95;;
66118;SDS011;52912;48.564;9.302;2022-09-12T00:55:16;7.38;;;4.85;;
66118;SDS011;52912;48.564;9.302;2022-09-12T00:57:47;8.35;;;4.60;;
66118;SDS011;52912;48.564;9.302;2022-09-12T01:00:18;8.57;;;5.13;;
66118;SDS011;52912;48.564;9.302;2022-09-12T01:02:48;8.07;;;4.80;;
66118;SDS011;52912;48.564;9.302;2022-09-12T01:05:15;9.43;;;5.30;;
66118;SDS011;52912;48.564;9.302;2022-09-12T01:07:41;6.50;;;4.88;;
66118;SDS011;52912;48.564;9.302;2022-09-12T01:10:07;9.07;;;5.13;;
66118;SDS011;52912;48.564;9.302;2022-09-12T01:12:34;8.88;;;5.28;;
66118;SDS011;52912;48.564;9.302;2022-09-12T01:15:03;8.55;;;5.43;;
66118;SDS011;52912;48.564;9.302;2022-09-12T01:17:30;6.97;;;5.28;;
66118;SDS011;52912;48.564;9.302;2022-09-12T01:20:12;9.20;;;5.22;;
66118;SDS011;52912;48.564;9.302;2022-09-12T01:22:56;7.68;;;5.55;;
66118;SDS011;52912;48.564;9.302;2022-09-12T01:25:45;7.05;;;5.20;;
66118;SDS011;52912;48.564;9.302;2022-09-12T01:28:28;7.30;;;5.25;;
66118;SDS011;52912;48.564;9.302;2022-09-12T01:31:09;11.82;;;5.75;;
66118;SDS011;52912;48.564;9.302;2022-09-12T01:36:31;12.10;;;5.35;;
66118;SDS011;52912;48.564;9.302;2022-09-12T01:39:05;8.45;;;5.40;;
66118;SDS011;52912;48.564;9.302;2022-09-12T01:41:40;13.48;;;5.80;;
66118;SDS011;52912;48.564;9.302;2022-09-12T01:44:13;11.55;;;5.82;;
66118;SDS011;52912;48.564;9.302;2022-09-12T01:46:49;9.20;;;5.78;;
66118;SDS011;52912;48.564;9.302;2022-09-12T01:49:20;10.13;;;4.88;;
66118;SDS011;52912;48.564;9.302;2022-09-12T01:51:51;8.20;;;5.00;;
66118;SDS011;52912;48.564;9.302;2022-09-12T01:54:22;8.98;;;5.07;;
66118;SDS011;52912;48.564;9.302;2022-09-12T01:56:51;6.53;;;5.10;;
66118;SDS011;52912;48.564;9.302;2022-09-12T01:59:22;8.10;;;5.15;;
66118;SDS011;52912;48.564;9.302;2022-09-12T02:01:55;7.55;;;5.30;;
66118;SDS011;52912;48.564;9.302;2022-09-12T02:04:26;7.28;;;5.32;;
66118;SDS011;52912;48.564;9.302;2022-09-12T02:06:55;12.85;;;5.25;;
66118;SDS011;52912;48.564;9.302;2022-09-12T02:09:26;7.30;;;5.05;;
66118;SDS011;52912;48.564;9.302;2022-09-12T02:11:58;10.30;;;4.60;;
66118;SDS011;52912;48.564;9.302;2022-09-12T02:14:25;8.05;;;5.30;;
66118;SDS011;52912;48.564;9.302;2022-09-12T02:16:55;13.13;;;5.85;;
66118;SDS011;52912;48.564;9.302;2022-09-12T02:19:26;10.88;;;5.40;;
66118;SDS011;52912;48.564;9.302;2022-09-12T02:21:56;5.95;;;4.57;;
66118;SDS011;52912;48.564;9.302;2022-09-12T02:24:24;6.85;;;4.97;;
66118;SDS011;52912;48.564;9.302;2022-09-12T02:26:54;8.20;;;4.63;;
66118;SDS011;52912;48.564;9.302;2022-09-12T02:29:22;8.32;;;5.47;;
66118;SDS011;52912;48.564;9.302;2022-09-12T02:31:48;9.52;;;4.95;;
66118;SDS011;52912;48.564;9.302;2022-09-12T02:34:31;8.85;;;5.13;;
66118;SDS011;52912;48.564;9.302;2022-09-12T02:37:11;6.68;;;4.80;;
66118;SDS011;52912;48.564;9.302;2022-09-12T02:39:41;9.40;;;5.35;;
66118;SDS011;52912;48.564;9.302;2022-09-12T02:42:07;8.55;;;5.55;;
66118;SDS011;52912;48.564;9.302;2022-09-12T02:44:33;9.02;;;5.05;;
66118;SDS011;52912;48.564;9.302;2022-09-12T02:47:00;7.90;;;5.25;;
66118;SDS011;52912;48.564;9.302;2022-09-12T02:49:30;7.82;;;5.53;;
66118;SDS011;52912;48.564;9.302;2022-09-12T02:51:56;9.38;;;6.68;;
66118;SDS011;52912;48.564;9.302;2022-09-12T02:54:23;12.98;;;7.32;;
66118;SDS011;52912;48.564;9.302;2022-09-12T02:56:49;10.73;;;6.13;;
66118;SDS011;52912;48.564;9.302;2022-09-12T02:59:16;8.13;;;6.00;;
66118;SDS011;52912;48.564;9.302;2022-09-12T03:01:49;7.78;;;6.10;;
66118;SDS011;52912;48.564;9.302;2022-09-12T03:04:28;9.02;;;5.50;;
66118;SDS011;52912;48.564;9.302;2022-09-12T03:07:06;8.20;;;5.85;;
66118;SDS011;52912;48.564;9.302;2022-09-12T03:09:38;8.48;;;6.10;;
66118;SDS011;52912;48.564;9.302;2022-09-12T03:12:12;10.20;;;5.90;;
66118;SDS011;52912;48.564;9.302;2022-09-12T03:14:59;7.75;;;5.43;;
66118;SDS011;52912;48.564;9.302;2022-09-12T03:17:44;8.02;;;5.88;;
66118;SDS011;52912;48.564;9.302;2022-09-12T03:20:21;8.70;;;6.10;;
66118;SDS011;52912;48.564;9.302;2022-09-12T03:22:53;7.15;;;5.45;;
66118;SDS011;52912;48.564;9.302;2022-09-12T03:25:23;7.40;;;5.05;;
66118;SDS011;52912;48.564;9.302;2022-09-12T03:27:55;9.25;;;6.22;;
66118;SDS011;52912;48.564;9.302;2022-09-12T03:30:24;40.92;;;7.65;;
66118;SDS011;52912;48.564;9.302;2022-09-12T03:32:51;12.20;;;6.85;;
66118;SDS011;52912;48.564;9.302;2022-09-12T03:35:18;43.45;;;7.32;;
66118;SDS011;52912;48.564;9.302;2022-09-12T03:37:47;9.25;;;6.95;;
66118;SDS011;52912;48.564;9.302;2022-09-12T03:40:13;8.60;;;6.68;;
66118;SDS011;52912;48.564;9.302;2022-09-12T03:42:39;8.40;;;6.25;;
66118;SDS011;52912;48.564;9.302;2022-09-12T03:45:05;8.55;;;5.88;;
66118;SDS011;52912;48.564;9.302;2022-09-12T03:47:31;8.32;;;6.05;;
66118;SDS011;52912;48.564;9.302;2022-09-12T03:49:57;8.10;;;6.28;;
66118;SDS011;52912;48.564;9.302;2022-09-12T03:52:24;10.68;;;6.10;;
66118;SDS011;52912;48.564;9.302;2022-09-12T03:54:49;7.95;;;6.32;;
66118;SDS011;52912;48.564;9.302;2022-09-12T03:57:14;9.70;;;6.10;;
66118;SDS011;52912;48.564;9.302;2022-09-12T03:59:40;11.30;;;5.53;;
66118;SDS011;52912;48.564;9.302;2022-09-12T04:02:05;9.65;;;5.68;;
66118;SDS011;52912;48.564;9.302;2022-09-12T04:04:31;13.80;;;6.25;;
66118;SDS011;52912;48.564;9.302;2022-09-12T04:06:56;7.70;;;5.90;;
66118;SDS011;52912;48.564;9.302;2022-09-12T04:09:23;8.98;;;6.72;;
66118;SDS011;52912;48.564;9.302;2022-09-12T04:11:49;9.95;;;6.63;;
66118;SDS011;52912;48.564;9.302;2022-09-12T04:14:14;9.93;;;6.97;;
66118;SDS011;52912;48.564;9.302;2022-09-12T04:16:40;11.07;;;6.40;;
66118;SDS011;52912;48.564;9.302;2022-09-12T04:19:05;16.88;;;6.72;;
66118;SDS011;52912;48.564;9.302;2022-09-12T04:21:31;14.68;;;7.30;;
66118;SDS011;52912;48.564;9.302;2022-09-12T04:23:56;18.05;;;8.00;;
66118;SDS011;52912;48.564;9.302;2022-09-12T04:26:23;11.05;;;7.68;;
66118;SDS011;52912;48.564;9.302;2022-09-12T04:28:51;18.30;;;7.10;;
66118;SDS011;52912;48.564;9.302;2022-09-12T04:31:18;24.00;;;8.13;;
66118;SDS011;52912;48.564;9.302;2022-09-12T04:33:43;33.30;;;7.45;;
66118;SDS011;52912;48.564;9.302;2022-09-12T04:36:10;15.93;;;7.45;;
66118;SDS011;52912;48.564;9.302;2022-09-12T04:38:36;37.55;;;7.28;;
66118;SDS011;52912;48.564;9.302;2022-09-12T04:41:08;24.25;;;7.18;;
66118;SDS011;52912;48.564;9.302;2022-09-12T04:43:36;11.35;;;7.72;;
66118;SDS011;52912;48.564;9.302;2022-09-12T04:46:03;9.80;;;6.80;;
66118;SDS011;52912;48.564;9.302;2022-09-12T04:48:29;20.55;;;7.35;;
66118;SDS011;52912;48.564;9.302;2022-09-12T04:50:55;10.27;;;7.05;;
66118;SDS011;52912;48.564;9.302;2022-09-12T04:53:20;12.45;;;6.90;;
66118;SDS011;52912;48.564;9.302;2022-09-12T04:55:46;9.63;;;6.40;;
66118;SDS011;52912;48.564;9.302;2022-09-12T04:58:11;19.17;;;6.43;;
66118;SDS011;52912;48.564;9.302;2022-09-12T05:00:38;8.45;;;6.30;;
66118;SDS011;52912;48.564;9.302;2022-09-12T05:03:03;11.00;;;5.82;;
66118;SDS011;52912;48.564;9.302;2022-09-12T05:05:29;26.65;;;7.20;;
66118;SDS011;52912;48.564;9.302;2022-09-12T05:07:54;111.88;;;8.23;;
66118;SDS011;52912;48.564;9.302;2022-09-12T05:10:20;15.55;;;7.55;;
66118;SDS011;52912;48.564;9.302;2022-09-12T05:12:45;28.15;;;7.35;;
66118;SDS011;52912;48.564;9.302;2022-09-12T05:15:11;15.85;;;7.68;;
66118;SDS011;52912;48.564;9.302;2022-09-12T05:17:37;50.45;;;8.68;;
66118;SDS011;52912;48.564;9.302;2022-09-12T05:20:03;37.60;;;7.90;;
66118;SDS011;52912;48.564;9.302;2022-09-12T05:22:29;17.10;;;8.35;;
66118;SDS011;52912;48.564;9.302;2022-09-12T05:24:54;10.98;;;8.18;;
66118;SDS011;52912;48.564;9.302;2022-09-12T05:27:20;12.40;;;8.23;;
66118;SDS011;52912;48.564;9.302;2022-09-12T05:29:45;13.15;;;7.85;;
66118;SDS011;52912;48.564;9.302;2022-09-12T05:32:11;12.02;;;8.25;;
66118;SDS011;52912;48.564;9.302;2022-09-12T05:34:37;12.18;;;7.70;;
66118;SDS011;52912;48.564;9.302;2022-09-12T05:37:03;11.48;;;7.35;;
66118;SDS011;52912;48.564;9.302;2022-09-12T05:39:29;10.07;;;7.47;;
66118;SDS011;52912;48.564;9.302;2022-09-12T05:41:54;10.10;;;7.78;;
66118;SDS011;52912;48.564;9.302;2022-09-12T05:44:20;10.50;;;7.07;;
66118;SDS011;52912;48.564;9.302;2022-09-12T05:46:45;12.65;;;7.20;;
66118;SDS011;52912;48.564;9.302;2022-09-12T05:49:11;9.63;;;7.70;;
66118;SDS011;52912;48.564;9.302;2022-09-12T05:51:39;11.00;;;8.00;;
66118;SDS011;52912;48.564;9.302;2022-09-12T05:54:06;10.75;;;8.27;;
66118;SDS011;52912;48.564;9.302;2022-09-12T05:56:36;10.60;;;7.47;;
66118;SDS011;52912;48.564;9.302;2022-09-12T05:59:03;14.68;;;8.07;;
66118;SDS011;52912;48.564;9.302;2022-09-12T06:01:30;9.57;;;7.30;;
66118;SDS011;52912;48.564;9.302;2022-09-12T06:03:58;10.93;;;7.75;;
66118;SDS011;52912;48.564;9.302;2022-09-12T06:06:25;10.63;;;7.78;;
66118;SDS011;52912;48.564;9.302;2022-09-12T06:08:54;10.70;;;7.05;;
66118;SDS011;52912;48.564;9.302;2022-09-12T06:11:23;12.15;;;7.90;;
66118;SDS011;52912;48.564;9.302;2022-09-12T06:13:50;13.37;;;8.30;;
66118;SDS011;52912;48.564;9.302;2022-09-12T06:16:17;14.18;;;7.90;;
66118;SDS011;52912;48.564;9.302;2022-09-12T06:18:45;14.80;;;8.50;;
66118;SDS011;52912;48.564;9.302;2022-09-12T06:21:12;12.95;;;8.50;;
66118;SDS011;52912;48.564;9.302;2022-09-12T06:23:38;12.75;;;9.70;;
66118;SDS011;52912;48.564;9.302;2022-09-12T06:26:06;12.77;;;9.07;;
66118;SDS011;52912;48.564;9.302;2022-09-12T06:28:34;14.18;;;10.40;;
66118;SDS011;52912;48.564;9.302;2022-09-12T06:31:01;28.40;;;10.10;;
66118;SDS011;52912;48.564;9.302;2022-09-12T06:33:27;63.20;;;11.48;;
66118;SDS011;52912;48.564;9.302;2022-09-12T06:35:53;57.13;;;11.43;;
66118;SDS011;52912;48.564;9.302;2022-09-12T06:38:18;24.08;;;10.02;;
66118;SDS011;52912;48.564;9.302;2022-09-12T06:40:44;29.23;;;9.95;;
66118;SDS011;52912;48.564;9.302;2022-09-12T06:43:11;14.30;;;9.80;;
66118;SDS011;52912;48.564;9.302;2022-09-12T06:45:37;15.15;;;10.07;;
66118;SDS011;52912;48.564;9.302;2022-09-12T06:48:02;27.27;;;11.35;;
66118;SDS011;52912;48.564;9.302;2022-09-12T06:50:28;29.95;;;10.45;;
66118;SDS011;52912;48.564;9.302;2022-09-12T06:52:53;20.15;;;10.73;;
66118;SDS011;52912;48.564;9.302;2022-09-12T06:55:19;20.60;;;11.23;;
66118;SDS011;52912;48.564;9.302;2022-09-12T06:57:44;16.50;;;10.65;;
66118;SDS011;52912;48.564;9.302;2022-09-12T07:00:12;15.73;;;9.85;;
66118;SDS011;52912;48.564;9.302;2022-09-12T07:02:38;16.20;;;9.93;;
66118;SDS011;52912;48.564;9.302;2022-09-12T07:05:04;14.77;;;9.45;;
66118;SDS011;52912;48.564;9.302;2022-09-12T07:07:30;17.90;;;10.18;;
66118;SDS011;52912;48.564;9.302;2022-09-12T07:09:55;12.77;;;8.63;;
66118;SDS011;52912;48.564;9.302;2022-09-12T07:12:20;11.63;;;8.32;;
66118;SDS011;52912;48.564;9.302;2022-09-12T07:14:46;13.25;;;8.18;;
66118;SDS011;52912;48.564;9.302;2022-09-12T07:17:13;10.43;;;8.45;;
66118;SDS011;52912;48.564;9.302;2022-09-12T07:19:38;11.90;;;8.57;;
66118;SDS011;52912;48.564;9.302;2022-09-12T07:22:04;10.60;;;8.43;;
66118;SDS011;52912;48.564;9.302;2022-09-12T07:24:29;12.65;;;7.85;;
66118;SDS011;52912;48.564;9.302;2022-09-12T07:26:54;14.15;;;8.15;;
66118;SDS011;52912;48.564;9.302;2022-09-12T07:29:20;10.40;;;8.23;;
66118;SDS011;52912;48.564;9.302;2022-09-12T07:31:45;9.43;;;7.55;;
66118;SDS011;52912;48.564;9.302;2022-09-12T07:34:12;10.05;;;7.72;;
66118;SDS011;52912;48.564;9.302;2022-09-12T07:36:38;9.63;;;7.35;;
66118;SDS011;52912;48.564;9.302;2022-09-12T07:39:03;10.23;;;7.55;;
66118;SDS011;52912;48.564;9.302;2022-09-12T07:41:29;11.98;;;7.68;;
66118;SDS011;52912;48.564;9.302;2022-09-12T07:43:56;9.65;;;7.38;;
66118;SDS011;52912;48.564;9.302;2022-09-12T07:46:23;11.20;;;7.43;;
66118;SDS011;52912;48.564;9.302;2022-09-12T07:48:50;11.52;;;7.50;;
66118;SDS011;52912;48.564;9.302;2022-09-12T07:51:17;10.43;;;7.60;;
66118;SDS011;52912;48.564;9.302;2022-09-12T07:53:43;9.15;;;7.38;;
66118;SDS011;52912;48.564;9.302;2022-09-12T07:56:10;13.98;;;7.35;;
66118;SDS011;52912;48.564;9.302;2022-09-12T07:58:37;9.88;;;7.13;;
66118;SDS011;52912;48.564;9.302;2022-09-12T08:01:04;9.77;;;7.43;;
66118;SDS011;52912;48.564;9.302;2022-09-12T08:03:31;10.00;;;7.38;;
66118;SDS011;52912;48.564;9.302;2022-09-12T08:06:01;10.70;;;7.30;;
66118;SDS011;52912;48.564;9.302;2022-09-12T08:08:29;9.45;;;7.15;;
66118;SDS011;52912;48.564;9.302;2022-09-12T08:10:55;9.55;;;7.05;;
66118;SDS011;52912;48.564;9.302;2022-09-12T08:13:21;9.25;;;6.63;;
66118;SDS011;52912;48.564;9.302;2022-09-12T08:15:46;11.55;;;6.63;;
66118;SDS011;52912;48.564;9.302;2022-09-12T08:18:12;8.00;;;6.15;;
66118;SDS011;52912;48.564;9.302;2022-09-12T08:20:37;8.50;;;6.65;;
66118;SDS011;52912;48.564;9.302;2022-09-12T08:23:03;10.55;;;6.05;;
66118;SDS011;52912;48.564;9.302;2022-09-12T08:25:29;9.57;;;6.22;;
66118;SDS011;52912;48.564;9.302;2022-09-12T08:27:55;8.40;;;6.40;;
66118;SDS011;52912;48.564;9.302;2022-09-12T08:30:20;9.00;;;6.40;;
66118;SDS011;52912;48.564;9.302;2022-09-12T08:32:46;13.80;;;6.63;;
66118;SDS011;52912;48.564;9.302;2022-09-12T08:35:11;8.00;;;6.22;;
66118;SDS011;52912;48.564;9.302;2022-09-12T08:37:37;7.70;;;6.53;;
66118;SDS011;52912;48.564;9.302;2022-09-12T08:40:02;9.60;;;6.43;;
66118;SDS011;52912;48.564;9.302;2022-09-12T08:42:31;10.77;;;6.43;;
66118;SDS011;52912;48.564;9.302;2022-09-12T08:45:09;7.90;;;6.05;;
66118;SDS011;52912;48.564;9.302;2022-09-12T08:47:40;9.75;;;6.47;;
66118;SDS011;52912;48.564;9.302;2022-09-12T08:50:11;7.20;;;5.10;;
66118;SDS011;52912;48.564;9.302;2022-09-12T08:52:41;6.90;;;5.13;;
66118;SDS011;52912;48.564;9.302;2022-09-12T08:55:20;7.22;;;5.07;;
66118;SDS011;52912;48.564;9.302;2022-09-12T08:57:50;7.32;;;5.57;;
66118;SDS011;52912;48.564;9.302;2022-09-12T09:00:17;8.30;;;5.85;;
66118;SDS011;52912;48.564;9.302;2022-09-12T09:02:48;6.82;;;5.40;;
66118;SDS011;52912;48.564;9.302;2022-09-12T09:05:39;5.93;;;4.47;;
66118;SDS011;52912;48.564;9.302;2022-09-12T09:08:15;6.82;;;4.60;;
66118;SDS011;52912;48.564;9.302;2022-09-12T09:10:50;8.15;;;4.60;;
66118;SDS011;52912;48.564;9.302;2022-09-12T09:13:27;5.32;;;3.92;;
66118;SDS011;52912;48.564;9.302;2022-09-12T09:18:30;6.05;;;3.80;;
66118;SDS011;52912;48.564;9.302;2022-09-12T09:20:58;4.60;;;3.28;;
66118;SDS011;52912;48.564;9.302;2022-09-12T09:23:28;4.90;;;3.92;;
66118;SDS011;52912;48.564;9.302;2022-09-12T09:25:57;5.10;;;3.80;;
66118;SDS011;52912;48.564;9.302;2022-09-12T09:28:28;7.57;;;3.55;;
66118;SDS011;52912;48.564;9.302;2022-09-12T09:31:00;5.47;;;3.65;;
66118;SDS011;52912;48.564;9.302;2022-09-12T09:33:26;7.20;;;3.70;;
66118;SDS011;52912;48.564;9.302;2022-09-12T09:35:58;5.45;;;3.50;;
66118;SDS011;52912;48.564;9.302;2022-09-12T09:38:33;5.50;;;3.30;;
66118;SDS011;52912;48.564;9.302;2022-09-12T09:41:15;8.20;;;3.93;;
66118;SDS011;52912;48.564;9.302;2022-09-12T09:43:59;3.97;;;2.90;;
66118;SDS011;52912;48.564;9.302;2022-09-12T09:46:25;4.03;;;3.03;;
66118;SDS011;52912;48.564;9.302;2022-09-12T09:48:51;4.97;;;2.83;;
66118;SDS011;52912;48.564;9.302;2022-09-12T09:51:19;5.30;;;3.30;;
66118;SDS011;52912;48.564;9.302;2022-09-12T09:53:49;4.03;;;3.00;;
66118;SDS011;52912;48.564;9.302;2022-09-12T09:56:23;3.53;;;2.90;;
66118;SDS011;52912;48.564;9.302;2022-09-12T09:58:52;6.10;;;2.90;;
66118;SDS011;52912;48.564;9.302;2022-09-12T10:01:19;4.57;;;2.53;;
66118;SDS011;52912;48.564;9.302;2022-09-12T10:03:48;3.70;;;2.70;;
66118;SDS011;52912;48.564;9.302;2022-09-12T10:06:22;3.72;;;2.72;;
66118;SDS011;52912;48.564;9.302;2022-09-12T10:08:50;5.05;;;2.90;;
66118;SDS011;52912;48.564;9.302;2022-09-12T10:11:27;4.68;;;3.03;;
66118;SDS011;52912;48.564;9.302;2022-09-12T10:13:53;5.28;;;2.88;;
66118;SDS011;52912;48.564;9.302;2022-09-12T10:16:22;3.22;;;2.50;;
66118;SDS011;52912;48.564;9.302;2022-09-12T10:18:49;3.63;;;2.63;;
66118;SDS011;52912;48.564;9.302;2022-09-12T10:21:17;4.95;;;2.60;;
66118;SDS011;52912;48.564;9.302;2022-09-12T10:23:45;5.93;;;2.70;;
66118;SDS011;52912;48.564;9.302;2022-09-12T10:26:15;5.28;;;2.50;;
66118;SDS011;52912;48.564;9.302;2022-09-12T10:28:44;4.30;;;2.60;;
66118;SDS011;52912;48.564;9.302;2022-09-12T10:31:13;3.47;;;2.45;;
66118;SDS011;52912;48.564;9.302;2022-09-12T10:33:42;3.50;;;2.80;;
66118;SDS011;52912;48.564;9.302;2022-09-12T10:36:10;4.55;;;2.85;;
66118;SDS011;52912;48.564;9.302;2022-09-12T10:38:35;3.95;;;2.88;;
66118;SDS011;52912;48.564;9.302;2022-09-12T10:41:02;4.68;;;2.50;;
66118;SDS011;52912;48.564;9.302;2022-09-12T10:43:29;5.38;;;2.30;;
66118;SDS011;52912;48.564;9.302;2022-09-12T10:46:19;5.00;;;2.40;;
66118;SDS011;52912;48.564;9.302;2022-09-12T10:48:48;4.00;;;2.38;;
66118;SDS011;52912;48.564;9.302;2022-09-12T10:51:25;2.75;;;2.20;;
66118;SDS011;52912;48.564;9.302;2022-09-12T10:53:54;3.13;;;2.13;;
66118;SDS011;52912;48.564;9.302;2022-09-12T10:56:21;3.45;;;2.47;;
66118;SDS011;52912;48.564;9.302;2022-09-12T10:59:04;4.85;;;2.25;;
66118;SDS011;52912;48.564;9.302;2022-09-12T11:01:38;3.25;;;2.33;;
66118;SDS011;52912;48.564;9.302;2022-09-12T11:09:23;2.90;;;2.15;;
66118;SDS011;52912;48.564;9.302;2022-09-12T11:11:56;4.60;;;2.15;;
66118;SDS011;52912;48.564;9.302;2022-09-12T11:14:41;5.63;;;2.17;;
66118;SDS011;52912;48.564;9.302;2022-09-12T11:17:22;2.25;;;1.83;;
66118;SDS011;52912;48.564;9.302;2022-09-12T11:20:00;3.33;;;1.80;;
66118;SDS011;52912;48.564;9.302;2022-09-12T11:22:57;4.00;;;2.20;;
66118;SDS011;52912;48.564;9.302;2022-09-12T11:25:42;4.20;;;2.00;;
66118;SDS011;52912;48.564;9.302;2022-09-12T11:28:17;3.67;;;2.05;;
66118;SDS011;52912;48.564;9.302;2022-09-12T11:33:31;4.38;;;2.00;;
66118;SDS011;52912;48.564;9.302;2022-09-12T11:36:06;5.45;;;1.90;;
66118;SDS011;52912;48.564;9.302;2022-09-12T11:38:44;2.58;;;1.90;;
66118;SDS011;52912;48.564;9.302;2022-09-12T11:41:16;3.22;;;1.80;;
66118;SDS011;52912;48.564;9.302;2022-09-12T11:43:48;3.72;;;1.98;;
66118;SDS011;52912;48.564;9.302;2022-09-12T11:46:18;2.35;;;1.73;;
66118;SDS011;52912;48.564;9.302;2022-09-12T11:48:47;2.42;;;1.60;;
66118;SDS011;52912;48.564;9.302;2022-09-12T11:51:24;4.47;;;1.88;;
66118;SDS011;52912;48.564;9.302;2022-09-12T11:54:01;7.47;;;2.10;;
66118;SDS011;52912;48.564;9.302;2022-09-12T11:56:33;2.50;;;1.50;;
66118;SDS011;52912;48.564;9.302;2022-09-12T11:59:03;3.85;;;1.77;;
66118;SDS011;52912;48.564;9.302;2022-09-12T12:01:37;2.13;;;1.60;;
66118;SDS011;52912;48.564;9.302;2022-09-12T12:04:07;3.63;;;1.80;;
66118;SDS011;52912;48.564;9.302;2022-09-12T12:06:39;1.88;;;1.70;;
66118;SDS011;52912;48.564;9.302;2022-09-12T12:09:12;4.05;;;1.63;;
66118;SDS011;52912;48.564;9.302;2022-09-12T12:11:38;3.15;;;1.60;;
66118;SDS011;52912;48.564;9.302;2022-09-12T12:14:11;2.42;;;1.95;;
66118;SDS011;52912;48.564;9.302;2022-09-12T12:16:40;2.78;;;1.80;;
66118;SDS011;52912;48.564;9.302;2022-09-12T12:19:07;3.05;;;1.60;;
66118;SDS011;52912;48.564;9.302;2022-09-12T12:21:48;4.15;;;1.73;;
66118;SDS011;52912;48.564;9.302;2022-09-12T12:24:16;2.80;;;1.80;;
66118;SDS011;52912;48.564;9.302;2022-09-12T12:26:52;2.72;;;1.75;;
66118;SDS011;52912;48.564;9.302;2022-09-12T12:29:35;3.08;;;1.70;;
66118;SDS011;52912;48.564;9.302;2022-09-12T12:32:17;6.18;;;1.90;;
66118;SDS011;52912;48.564;9.302;2022-09-12T12:34:45;4.22;;;1.90;;
66118;SDS011;52912;48.564;9.302;2022-09-12T12:40:20;1.70;;;1.60;;
66118;SDS011;52912;48.564;9.302;2022-09-12T12:45:58;2.50;;;1.90;;
66118;SDS011;52912;48.564;9.302;2022-09-12T12:48:27;1.83;;;1.60;;
66118;SDS011;52912;48.564;9.302;2022-09-12T12:53:50;1.98;;;1.30;;
66118;SDS011;52912;48.564;9.302;2022-09-12T12:56:29;1.52;;;1.10;;
66118;SDS011;52912;48.564;9.302;2022-09-12T12:58:59;1.27;;;1.17;;
66118;SDS011;52912;48.564;9.302;2022-09-12T13:03:53;1.55;;;1.10;;
66118;SDS011;52912;48.564;9.302;2022-09-12T13:06:23;1.55;;;1.10;;
66118;SDS011;52912;48.564;9.302;2022-09-12T13:08:56;1.67;;;1.25;;
66118;SDS011;52912;48.564;9.302;2022-09-12T13:11:29;1.52;;;1.10;;
66118;SDS011;52912;48.564;9.302;2022-09-12T13:13:58;1.15;;;1.13;;
66118;SDS011;52912;48.564;9.302;2022-09-12T13:16:32;1.67;;;1.20;;
66118;SDS011;52912;48.564;9.302;2022-09-12T13:19:03;1.70;;;1.20;;
66118;SDS011;52912;48.564;9.302;2022-09-12T13:21:31;1.75;;;1.30;;
66118;SDS011;52912;48.564;9.302;2022-09-12T13:23:57;2.00;;;1.20;;
66118;SDS011;52912;48.564;9.302;2022-09-12T13:26:24;1.48;;;1.23;;
66118;SDS011;52912;48.564;9.302;2022-09-12T13:28:51;1.35;;;1.20;;
66118;SDS011;52912;48.564;9.302;2022-09-12T13:31:33;1.20;;;1.13;;
66118;SDS011;52912;48.564;9.302;2022-09-12T13:33:59;0.80;;;0.80;;
66118;SDS011;52912;48.564;9.302;2022-09-12T13:36:35;1.38;;;1.13;;
66118;SDS011;52912;48.564;9.302;2022-09-12T13:41:47;1.27;;;1.17;;
66118;SDS011;52912;48.564;9.302;2022-09-12T13:44:44;2.42;;;1.00;;
66118;SDS011;52912;48.564;9.302;2022-09-12T13:47:12;1.20;;;1.10;;
66118;SDS011;52912;48.564;9.302;2022-09-12T13:49:42;1.20;;;1.10;;
66118;SDS011;52912;48.564;9.302;2022-09-12T13:52:13;1.13;;;1.02;;
66118;SDS011;52912;48.564;9.302;2022-09-12T13:54:41;2.05;;;0.90;;
66118;SDS011;52912;48.564;9.302;2022-09-12T13:57:19;1.25;;;1.00;;
66118;SDS011;52912;48.564;9.302;2022-09-12T13:59:55;1.50;;;1.00;;
66118;SDS011;52912;48.564;9.302;2022-09-12T14:02:22;1.42;;;1.02;;
66118;SDS011;52912;48.564;9.302;2022-09-12T14:04:50;2.25;;;1.20;;
66118;SDS011;52912;48.564;9.302;2022-09-12T14:07:18;1.27;;;1.17;;
66118;SDS011;52912;48.564;9.302;2022-09-12T14:09:51;1.02;;;1.00;;
66118;SDS011;52912;48.564;9.302;2022-09-12T14:12:18;1.35;;;1.10;;
66118;SDS011;52912;48.564;9.302;2022-09-12T14:14:48;1.52;;;1.10;;
66118;SDS011;52912;48.564;9.302;2022-09-12T14:17:16;2.13;;;1.20;;
66118;SDS011;52912;48.564;9.302;2022-09-12T14:19:46;1.17;;;1.02;;
66118;SDS011;52912;48.564;9.302;2022-09-12T14:22:12;3.00;;;1.08;;
66118;SDS011;52912;48.564;9.302;2022-09-12T14:24:38;1.20;;;1.10;;
66118;SDS011;52912;48.564;9.302;2022-09-12T14:27:04;1.42;;;1.00;;
66118;SDS011;52912;48.564;9.302;2022-09-12T14:29:29;1.20;;;1.10;;
66118;SDS011;52912;48.564;9.302;2022-09-12T14:31:59;1.20;;;1.10;;
66118;SDS011;52912;48.564;9.302;2022-09-12T14:34:26;1.85;;;0.90;;
66118;SDS011;52912;48.564;9.302;2022-09-12T14:36:52;1.33;;;1.20;;
66118;SDS011;52912;48.564;9.302;2022-09-12T14:39:21;0.98;;;0.90;;
66118;SDS011;52912;48.564;9.302;2022-09-12T14:41:50;1.65;;;1.20;;
66118;SDS011;52912;48.564;9.302;2022-09-12T14:44:25;1.30;;;1.08;;
66118;SDS011;52912;48.564;9.302;2022-09-12T14:46:52;2.80;;;1.05;;
66118;SDS011;52912;48.564;9.302;2022-09-12T14:49:18;0.90;;;0.90;;
66118;SDS011;52912;48.564;9.302;2022-09-12T14:51:52;1.65;;;0.95;;
66118;SDS011;52912;48.564;9.302;2022-09-12T14:54:35;1.25;;;1.00;;
66118;SDS011;52912;48.564;9.302;2022-09-12T14:57:02;1.85;;;1.13;;
66118;SDS011;52912;48.564;9.302;2022-09-12T14:59:29;1.33;;;1.10;;
66118;SDS011;52912;48.564;9.302;2022-09-12T15:02:16;1.52;;;1.00;;
66118;SDS011;52912;48.564;9.302;2022-09-12T15:04:45;1.60;;;1.25;;
66118;SDS011;52912;48.564;9.302;2022-09-12T15:07:14;1.10;;;0.98;;
66118;SDS011;52912;48.564;9.302;2022-09-12T15:09:40;1.65;;;1.20;;
66118;SDS011;52912;48.564;9.302;2022-09-12T15:12:07;2.70;;;0.88;;
66118;SDS011;52912;48.564;9.302;2022-09-12T15:14:33;1.63;;;1.17;;
66118;SDS011;52912;48.564;9.302;2022-09-12T15:16:58;1.05;;;0.98;;
66118;SDS011;52912;48.564;9.302;2022-09-12T15:19:24;3.47;;;1.10;;
66118;SDS011;52912;48.564;9.302;2022-09-12T15:21:49;0.98;;;0.98;;
66118;SDS011;52912;48.564;9.302;2022-09-12T15:24:16;1.38;;;1.15;;